AAY1587 KPVU-KSAN
Flight info
| Callsign | AAY1587 |
|---|---|
| Flight time | 1h 31m |
| Altitude | 38000 |
| Route | DITTI1 DAHLI EHK LAKRR Q73 LVELL LUCKI1 |
| Aircraft | A319/M-SDE3FGHIRWY/LB1 |
Departure
| Time | 2026-04-25 02:36 |
|---|---|
| Airport | Provo Municipal Airport (KPVU) |
Arrival
| Time | 2026-04-25 04:08 |
|---|---|
| Airport | San Diego International Airport (KSAN) |
| Time | Latitude | Longitude | Altitude | Speed | Heading |
|---|---|---|---|---|---|
| 2026-04-25 02:04 | 40.21308 | -111.71269 | 4506 ft | 0 kts | 53° |
| 2026-04-25 02:29 | 40.21301 | -111.71285 | 4506 ft | 2 kts | 72° |
| 2026-04-25 02:29 | 40.21298 | -111.71305 | 4506 ft | 2 kts | 89° |
| 2026-04-25 02:29 | 40.21299 | -111.71324 | 4506 ft | 2 kts | 106° |
| 2026-04-25 02:29 | 40.21305 | -111.71342 | 4506 ft | 2 kts | 122° |
| 2026-04-25 02:30 | 40.21314 | -111.71356 | 4506 ft | 2 kts | 140° |
| 2026-04-25 02:30 | 40.21327 | -111.71368 | 4506 ft | 2 kts | 147° |
| 2026-04-25 02:30 | 40.21339 | -111.71378 | 4506 ft | 2 kts | 145° |
| 2026-04-25 02:30 | 40.21352 | -111.71390 | 4506 ft | 2 kts | 145° |
| 2026-04-25 02:31 | 40.21357 | -111.71394 | 4506 ft | 0 kts | 145° |
| 2026-04-25 02:33 | 40.21356 | -111.71394 | 4506 ft | 0 kts | 145° |
| 2026-04-25 02:33 | 40.21318 | -111.71358 | 4506 ft | 8 kts | 145° |
| 2026-04-25 02:34 | 40.21268 | -111.71353 | 4505 ft | 10 kts | 218° |
| 2026-04-25 02:34 | 40.21197 | -111.71410 | 4505 ft | 11 kts | 166° |
| 2026-04-25 02:34 | 40.21151 | -111.71407 | 4505 ft | 0 kts | 200° |
| 2026-04-25 02:35 | 40.21117 | -111.71440 | 4505 ft | 16 kts | 227° |
| 2026-04-25 02:35 | 40.21093 | -111.71536 | 4505 ft | 5 kts | 322° |
| 2026-04-25 02:35 | 40.21109 | -111.71552 | 4505 ft | 16 kts | 323° |
| 2026-04-25 02:35 | 40.21398 | -111.71812 | 4507 ft | 83 kts | 326° |
| 2026-04-25 02:36 | 40.22045 | -111.72389 | 4507 ft | 138 kts | 326° |
| 2026-04-25 02:36 | 40.22946 | -111.73136 | 4720 ft | 164 kts | 327° |
| 2026-04-25 02:36 | 40.23763 | -111.74183 | 5139 ft | 175 kts | 292° |
| 2026-04-25 02:36 | 40.23739 | -111.75796 | 5565 ft | 193 kts | 248° |
| 2026-04-25 02:37 | 40.22917 | -111.77224 | 6082 ft | 205 kts | 225° |
| 2026-04-25 02:37 | 40.21627 | -111.78200 | 6440 ft | 224 kts | 211° |
| 2026-04-25 02:37 | 40.20313 | -111.79286 | 6798 ft | 228 kts | 223° |
| 2026-04-25 02:37 | 40.19135 | -111.80782 | 7047 ft | 246 kts | 233° |
| 2026-04-25 02:38 | 40.18052 | -111.82611 | 7373 ft | 261 kts | 238° |
| 2026-04-25 02:38 | 40.17016 | -111.84628 | 7703 ft | 275 kts | 240° |
| 2026-04-25 02:38 | 40.15983 | -111.86751 | 8251 ft | 279 kts | 240° |
| 2026-04-25 02:38 | 40.14966 | -111.88881 | 8953 ft | 285 kts | 240° |
| 2026-04-25 02:39 | 40.13720 | -111.90897 | 9932 ft | 288 kts | 219° |
| 2026-04-25 02:39 | 40.11929 | -111.92017 | 10769 ft | 295 kts | 198° |
| 2026-04-25 02:39 | 40.09885 | -111.92568 | 11288 ft | 309 kts | 193° |
| 2026-04-25 02:39 | 40.07740 | -111.93071 | 12006 ft | 314 kts | 193° |
| 2026-04-25 02:40 | 40.05620 | -111.93597 | 12827 ft | 314 kts | 194° |
| 2026-04-25 02:40 | 40.03479 | -111.94157 | 13643 ft | 314 kts | 194° |
| 2026-04-25 02:40 | 40.01277 | -111.94372 | 14379 ft | 321 kts | 181° |
| 2026-04-25 02:40 | 39.99060 | -111.93934 | 15065 ft | 329 kts | 169° |
| 2026-04-25 02:41 | 39.96851 | -111.93092 | 15744 ft | 334 kts | 167° |
| 2026-04-25 02:41 | 39.94636 | -111.92190 | 16421 ft | 337 kts | 167° |
| 2026-04-25 02:41 | 39.92396 | -111.91283 | 17084 ft | 340 kts | 167° |
| 2026-04-25 02:41 | 39.90114 | -111.90449 | 17712 ft | 341 kts | 173° |
| 2026-04-25 02:42 | 39.87754 | -111.90113 | 18319 ft | 339 kts | 184° |
| 2026-04-25 02:42 | 39.85399 | -111.90311 | 18913 ft | 340 kts | 191° |
| 2026-04-25 02:42 | 39.83046 | -111.90707 | 19479 ft | 344 kts | 192° |
| 2026-04-25 02:42 | 39.80682 | -111.91129 | 20061 ft | 348 kts | 192° |
| 2026-04-25 02:43 | 39.78260 | -111.91554 | 20613 ft | 352 kts | 192° |
| 2026-04-25 02:43 | 39.75847 | -111.91972 | 21141 ft | 357 kts | 192° |
| 2026-04-25 02:43 | 39.73360 | -111.92416 | 21704 ft | 359 kts | 194° |
| 2026-04-25 02:43 | 39.70947 | -111.93133 | 22249 ft | 359 kts | 201° |
| 2026-04-25 02:44 | 39.68572 | -111.94230 | 22770 ft | 359 kts | 208° |
| 2026-04-25 02:44 | 39.66309 | -111.95567 | 23282 ft | 361 kts | 209° |
| 2026-04-25 02:44 | 39.64031 | -111.96962 | 23779 ft | 364 kts | 210° |
| 2026-04-25 02:44 | 39.61750 | -111.98364 | 24315 ft | 366 kts | 210° |
| 2026-04-25 02:45 | 39.59433 | -111.99783 | 24837 ft | 369 kts | 210° |
| 2026-04-25 02:45 | 39.57102 | -112.01211 | 25327 ft | 371 kts | 209° |
| 2026-04-25 02:45 | 39.54774 | -112.02628 | 25778 ft | 374 kts | 210° |
| 2026-04-25 02:45 | 39.52406 | -112.04071 | 26243 ft | 376 kts | 210° |
| 2026-04-25 02:46 | 39.50051 | -112.05504 | 26678 ft | 379 kts | 210° |
| 2026-04-25 02:46 | 39.47670 | -112.06950 | 27103 ft | 381 kts | 210° |
| 2026-04-25 02:46 | 39.45233 | -112.08428 | 27542 ft | 383 kts | 210° |
| 2026-04-25 02:46 | 39.42834 | -112.09885 | 27949 ft | 386 kts | 210° |
| 2026-04-25 02:47 | 39.40403 | -112.11357 | 28347 ft | 388 kts | 210° |
| 2026-04-25 02:47 | 39.37943 | -112.12846 | 28740 ft | 391 kts | 210° |
| 2026-04-25 02:47 | 39.35488 | -112.14333 | 29123 ft | 393 kts | 210° |
| 2026-04-25 02:47 | 39.32996 | -112.15839 | 29518 ft | 395 kts | 210° |
| 2026-04-25 02:48 | 39.30516 | -112.17338 | 29883 ft | 397 kts | 210° |
| 2026-04-25 02:48 | 39.27999 | -112.18855 | 30256 ft | 398 kts | 210° |
| 2026-04-25 02:48 | 39.25512 | -112.20355 | 30601 ft | 400 kts | 210° |
| 2026-04-25 02:48 | 39.22966 | -112.21890 | 30957 ft | 402 kts | 210° |
| 2026-04-25 02:49 | 39.20450 | -112.23403 | 31289 ft | 404 kts | 210° |
| 2026-04-25 02:49 | 39.17885 | -112.24946 | 31594 ft | 406 kts | 210° |
| 2026-04-25 02:49 | 39.15329 | -112.26482 | 31892 ft | 408 kts | 210° |
| 2026-04-25 02:49 | 39.12762 | -112.28024 | 32221 ft | 409 kts | 210° |
| 2026-04-25 02:50 | 39.10146 | -112.29591 | 32529 ft | 411 kts | 210° |
| 2026-04-25 02:50 | 39.07590 | -112.31126 | 32871 ft | 411 kts | 210° |
| 2026-04-25 02:50 | 39.04989 | -112.32683 | 33285 ft | 409 kts | 210° |
| 2026-04-25 02:50 | 39.02431 | -112.34212 | 33724 ft | 407 kts | 210° |
| 2026-04-25 02:51 | 38.99848 | -112.35754 | 34085 ft | 405 kts | 210° |
| 2026-04-25 02:51 | 38.97306 | -112.37274 | 34409 ft | 404 kts | 210° |
| 2026-04-25 02:51 | 38.94788 | -112.38776 | 34746 ft | 402 kts | 211° |
| 2026-04-25 02:51 | 38.92253 | -112.40288 | 35063 ft | 401 kts | 211° |
| 2026-04-25 02:52 | 38.89709 | -112.41804 | 35333 ft | 401 kts | 211° |
| 2026-04-25 02:52 | 38.87199 | -112.43300 | 35603 ft | 400 kts | 211° |
| 2026-04-25 02:52 | 38.84667 | -112.44807 | 35613 ft | 400 kts | 211° |
| 2026-04-25 02:52 | 38.82124 | -112.46318 | 35815 ft | 401 kts | 211° |
| 2026-04-25 02:53 | 38.79601 | -112.47819 | 36080 ft | 401 kts | 211° |
| 2026-04-25 02:53 | 38.77089 | -112.49310 | 36317 ft | 401 kts | 211° |
| 2026-04-25 02:53 | 38.74540 | -112.50825 | 36523 ft | 403 kts | 211° |
| 2026-04-25 02:53 | 38.71977 | -112.52346 | 36725 ft | 404 kts | 211° |
| 2026-04-25 02:54 | 38.69435 | -112.53851 | 36937 ft | 405 kts | 211° |
| 2026-04-25 02:54 | 38.66877 | -112.55366 | 37147 ft | 405 kts | 211° |
| 2026-04-25 02:54 | 38.64321 | -112.56879 | 37344 ft | 406 kts | 212° |
| 2026-04-25 02:54 | 38.61776 | -112.58385 | 37543 ft | 406 kts | 211° |
| 2026-04-25 02:55 | 38.59219 | -112.59895 | 37747 ft | 406 kts | 212° |
| 2026-04-25 02:55 | 38.56643 | -112.61414 | 37906 ft | 407 kts | 212° |
| 2026-04-25 02:55 | 38.54089 | -112.62920 | 37994 ft | 409 kts | 212° |
| 2026-04-25 02:56 | 38.48980 | -112.65929 | 38005 ft | 409 kts | 211° |
| 2026-04-25 02:56 | 38.43837 | -112.68953 | 38005 ft | 408 kts | 211° |
| 2026-04-25 02:57 | 38.38660 | -112.71992 | 38001 ft | 408 kts | 211° |
| 2026-04-25 02:57 | 38.33527 | -112.75001 | 37995 ft | 409 kts | 211° |
| 2026-04-25 02:58 | 38.28362 | -112.78024 | 37979 ft | 409 kts | 211° |
| 2026-04-25 02:58 | 38.23208 | -112.81037 | 37972 ft | 408 kts | 211° |
| 2026-04-25 02:59 | 38.18048 | -112.84048 | 37977 ft | 407 kts | 211° |
| 2026-04-25 02:59 | 38.12912 | -112.87037 | 37985 ft | 407 kts | 211° |
| 2026-04-25 03:00 | 38.07739 | -112.90046 | 37977 ft | 406 kts | 211° |
| 2026-04-25 03:00 | 38.02615 | -112.93021 | 37971 ft | 407 kts | 211° |
| 2026-04-25 03:01 | 37.97475 | -112.96000 | 37990 ft | 405 kts | 211° |
| 2026-04-25 03:01 | 37.92339 | -112.98975 | 37984 ft | 406 kts | 211° |
| 2026-04-25 03:02 | 37.87204 | -113.01943 | 37991 ft | 406 kts | 211° |
| 2026-04-25 03:02 | 37.82093 | -113.04892 | 37987 ft | 405 kts | 212° |
| 2026-04-25 03:03 | 37.77060 | -113.08073 | 37968 ft | 401 kts | 216° |
| 2026-04-25 03:03 | 37.72249 | -113.11600 | 37960 ft | 400 kts | 217° |
| 2026-04-25 03:04 | 37.67438 | -113.15112 | 37952 ft | 399 kts | 217° |
| 2026-04-25 03:04 | 37.62648 | -113.18612 | 37957 ft | 399 kts | 217° |
| 2026-04-25 03:05 | 37.55455 | -113.23862 | 37977 ft | 399 kts | 217° |
| 2026-04-25 03:05 | 37.50673 | -113.27345 | 37981 ft | 398 kts | 217° |
| 2026-04-25 03:06 | 37.45877 | -113.30834 | 37983 ft | 398 kts | 217° |
| 2026-04-25 03:06 | 37.41086 | -113.34314 | 37981 ft | 398 kts | 217° |
| 2026-04-25 03:07 | 37.36298 | -113.37788 | 37973 ft | 398 kts | 217° |
| 2026-04-25 03:07 | 37.31493 | -113.41267 | 37974 ft | 398 kts | 217° |
| 2026-04-25 03:08 | 37.26722 | -113.44717 | 37965 ft | 397 kts | 217° |
| 2026-04-25 03:08 | 37.21925 | -113.48180 | 37957 ft | 398 kts | 217° |
| 2026-04-25 03:09 | 37.17153 | -113.51622 | 37928 ft | 398 kts | 217° |
| 2026-04-25 03:09 | 37.12360 | -113.55072 | 37915 ft | 398 kts | 218° |
| 2026-04-25 03:10 | 37.07577 | -113.58510 | 37894 ft | 398 kts | 218° |
| 2026-04-25 03:10 | 37.02781 | -113.61955 | 37879 ft | 398 kts | 218° |
| 2026-04-25 03:11 | 36.97971 | -113.65401 | 37879 ft | 397 kts | 217° |
| 2026-04-25 03:11 | 36.93217 | -113.68803 | 37892 ft | 397 kts | 217° |
| 2026-04-25 03:12 | 36.88414 | -113.72236 | 37907 ft | 395 kts | 217° |
| 2026-04-25 03:12 | 36.83639 | -113.75645 | 37918 ft | 395 kts | 217° |
| 2026-04-25 03:13 | 36.78859 | -113.79052 | 37919 ft | 396 kts | 217° |
| 2026-04-25 03:13 | 36.74089 | -113.82447 | 37911 ft | 397 kts | 217° |
| 2026-04-25 03:14 | 36.69290 | -113.85855 | 37904 ft | 396 kts | 217° |
| 2026-04-25 03:14 | 36.64529 | -113.89232 | 37887 ft | 395 kts | 217° |
| 2026-04-25 03:15 | 36.59730 | -113.92632 | 37884 ft | 394 kts | 217° |
| 2026-04-25 03:15 | 36.54989 | -113.95988 | 37878 ft | 393 kts | 217° |
| 2026-04-25 03:16 | 36.50226 | -113.99351 | 37874 ft | 392 kts | 218° |
| 2026-04-25 03:16 | 36.45497 | -114.02687 | 37868 ft | 393 kts | 218° |
| 2026-04-25 03:17 | 36.40746 | -114.06032 | 37856 ft | 392 kts | 218° |
| 2026-04-25 03:17 | 36.35996 | -114.09376 | 37850 ft | 392 kts | 218° |
| 2026-04-25 03:18 | 36.31242 | -114.12717 | 37846 ft | 391 kts | 218° |
| 2026-04-25 03:18 | 36.26520 | -114.16029 | 37852 ft | 392 kts | 218° |
| 2026-04-25 03:19 | 36.21788 | -114.19343 | 37859 ft | 391 kts | 218° |
| 2026-04-25 03:19 | 36.17048 | -114.22660 | 37858 ft | 389 kts | 218° |
| 2026-04-25 03:20 | 36.12487 | -114.26121 | 37854 ft | 384 kts | 222° |
| 2026-04-25 03:20 | 36.08238 | -114.30104 | 37849 ft | 379 kts | 227° |
| 2026-04-25 03:21 | 36.04414 | -114.34482 | 37836 ft | 375 kts | 232° |
| 2026-04-25 03:21 | 36.00897 | -114.39234 | 37829 ft | 374 kts | 234° |
| 2026-04-25 03:22 | 35.97446 | -114.43989 | 37825 ft | 373 kts | 234° |
| 2026-04-25 03:22 | 35.93970 | -114.48779 | 37815 ft | 374 kts | 234° |
| 2026-04-25 03:23 | 35.90508 | -114.53554 | 37818 ft | 373 kts | 234° |
| 2026-04-25 03:23 | 35.87046 | -114.58325 | 37817 ft | 373 kts | 234° |
| 2026-04-25 03:24 | 35.83596 | -114.63075 | 37810 ft | 373 kts | 234° |
| 2026-04-25 03:24 | 35.80130 | -114.67835 | 37806 ft | 373 kts | 234° |
| 2026-04-25 03:25 | 35.76673 | -114.72587 | 37801 ft | 372 kts | 234° |
| 2026-04-25 03:25 | 35.73210 | -114.77329 | 37867 ft | 372 kts | 234° |
| 2026-04-25 03:26 | 35.69772 | -114.82036 | 37815 ft | 372 kts | 234° |
| 2026-04-25 03:26 | 35.66322 | -114.86755 | 37807 ft | 371 kts | 234° |
| 2026-04-25 03:27 | 35.62878 | -114.91468 | 37827 ft | 371 kts | 234° |
| 2026-04-25 03:27 | 35.59449 | -114.96155 | 37843 ft | 371 kts | 234° |
| 2026-04-25 03:28 | 35.55954 | -115.00842 | 37863 ft | 374 kts | 232° |
| 2026-04-25 03:28 | 35.51994 | -115.05055 | 37883 ft | 380 kts | 225° |
| 2026-04-25 03:29 | 35.47514 | -115.08591 | 37893 ft | 388 kts | 218° |
| 2026-04-25 03:29 | 35.42554 | -115.11353 | 37906 ft | 398 kts | 210° |
| 2026-04-25 03:30 | 35.37327 | -115.13584 | 37903 ft | 397 kts | 210° |
| 2026-04-25 03:30 | 35.32117 | -115.15776 | 37909 ft | 397 kts | 210° |
| 2026-04-25 03:31 | 35.26853 | -115.17980 | 37916 ft | 398 kts | 210° |
| 2026-04-25 03:31 | 35.21639 | -115.20155 | 37920 ft | 397 kts | 210° |
| 2026-04-25 03:32 | 35.16399 | -115.22337 | 37909 ft | 398 kts | 209° |
| 2026-04-25 03:32 | 35.11007 | -115.24143 | 37906 ft | 405 kts | 204° |
| 2026-04-25 03:33 | 35.05490 | -115.25643 | 37893 ft | 404 kts | 204° |
| 2026-04-25 03:33 | 35.00005 | -115.27137 | 37883 ft | 404 kts | 204° |
| 2026-04-25 03:34 | 34.94930 | -115.28513 | 37862 ft | 405 kts | 204° |
| 2026-04-25 03:34 | 34.89401 | -115.30012 | 37851 ft | 405 kts | 204° |
| 2026-04-25 03:35 | 34.83894 | -115.31498 | 37842 ft | 404 kts | 204° |
| 2026-04-25 03:35 | 34.78453 | -115.33056 | 37832 ft | 400 kts | 207° |
| 2026-04-25 03:36 | 34.73175 | -115.35115 | 37824 ft | 395 kts | 210° |
| 2026-04-25 03:36 | 34.67999 | -115.37220 | 37818 ft | 395 kts | 210° |
| 2026-04-25 03:37 | 34.62776 | -115.39343 | 37815 ft | 394 kts | 210° |
| 2026-04-25 03:37 | 34.57602 | -115.41447 | 37811 ft | 393 kts | 210° |
| 2026-04-25 03:38 | 34.52412 | -115.43554 | 37808 ft | 392 kts | 210° |
| 2026-04-25 03:38 | 34.47274 | -115.45640 | 37794 ft | 391 kts | 210° |
| 2026-04-25 03:39 | 34.42092 | -115.47743 | 37793 ft | 390 kts | 211° |
| 2026-04-25 03:39 | 34.37091 | -115.50174 | 37801 ft | 383 kts | 216° |
| 2026-04-25 03:40 | 34.32422 | -115.53120 | 37813 ft | 376 kts | 221° |
| 2026-04-25 03:40 | 34.27993 | -115.56371 | 37823 ft | 375 kts | 221° |
| 2026-04-25 03:41 | 34.23519 | -115.59614 | 37837 ft | 376 kts | 220° |
| 2026-04-25 03:41 | 34.18816 | -115.62450 | 37846 ft | 383 kts | 215° |
| 2026-04-25 03:42 | 34.13846 | -115.64865 | 37846 ft | 384 kts | 213° |
| 2026-04-25 03:42 | 34.08905 | -115.67213 | 37855 ft | 382 kts | 213° |
| 2026-04-25 03:43 | 34.03949 | -115.69559 | 37850 ft | 382 kts | 212° |
| 2026-04-25 03:43 | 33.99001 | -115.71890 | 37851 ft | 383 kts | 213° |
| 2026-04-25 03:44 | 33.94015 | -115.74239 | 37876 ft | 383 kts | 212° |
| 2026-04-25 03:44 | 33.89090 | -115.76602 | 37889 ft | 380 kts | 213° |
| 2026-04-25 03:45 | 33.84192 | -115.79015 | 37917 ft | 381 kts | 213° |
| 2026-04-25 03:45 | 33.79301 | -115.81413 | 37813 ft | 376 kts | 213° |
| 2026-04-25 03:46 | 33.76849 | -115.82610 | 37004 ft | 381 kts | 213° |
| 2026-04-25 03:46 | 33.74364 | -115.83803 | 35850 ft | 392 kts | 212° |
| 2026-04-25 03:46 | 33.71845 | -115.84987 | 34873 ft | 398 kts | 211° |
| 2026-04-25 03:46 | 33.69242 | -115.86198 | 33967 ft | 401 kts | 211° |
| 2026-04-25 03:47 | 33.66651 | -115.87406 | 33122 ft | 404 kts | 211° |
| 2026-04-25 03:47 | 33.64008 | -115.88639 | 32223 ft | 409 kts | 210° |
| 2026-04-25 03:47 | 33.61361 | -115.89877 | 31334 ft | 412 kts | 210° |
| 2026-04-25 03:47 | 33.58696 | -115.91118 | 30658 ft | 411 kts | 209° |
| 2026-04-25 03:48 | 33.56037 | -115.92353 | 30070 ft | 408 kts | 209° |
| 2026-04-25 03:48 | 33.53433 | -115.93703 | 29406 ft | 399 kts | 216° |
| 2026-04-25 03:48 | 33.51226 | -115.95615 | 28730 ft | 387 kts | 229° |
| 2026-04-25 03:48 | 33.49490 | -115.97972 | 28106 ft | 378 kts | 239° |
| 2026-04-25 03:49 | 33.47991 | -116.00523 | 27499 ft | 374 kts | 239° |
| 2026-04-25 03:49 | 33.46516 | -116.03058 | 26881 ft | 372 kts | 239° |
| 2026-04-25 03:49 | 33.45042 | -116.05602 | 26264 ft | 370 kts | 239° |
| 2026-04-25 03:49 | 33.43578 | -116.08122 | 25675 ft | 367 kts | 239° |
| 2026-04-25 03:50 | 33.42123 | -116.10624 | 25075 ft | 364 kts | 239° |
| 2026-04-25 03:50 | 33.40696 | -116.13080 | 24505 ft | 361 kts | 239° |
| 2026-04-25 03:50 | 33.39276 | -116.15519 | 23906 ft | 359 kts | 239° |
| 2026-04-25 03:50 | 33.37853 | -116.17964 | 23304 ft | 357 kts | 239° |
| 2026-04-25 03:51 | 33.36441 | -116.20389 | 22717 ft | 356 kts | 239° |
| 2026-04-25 03:51 | 33.35006 | -116.22794 | 22141 ft | 355 kts | 235° |
| 2026-04-25 03:51 | 33.33236 | -116.24901 | 21576 ft | 360 kts | 224° |
| 2026-04-25 03:51 | 33.31139 | -116.26523 | 21062 ft | 364 kts | 214° |
| 2026-04-25 03:52 | 33.28886 | -116.27882 | 20540 ft | 363 kts | 212° |
| 2026-04-25 03:52 | 33.26614 | -116.29213 | 20031 ft | 361 kts | 212° |
| 2026-04-25 03:52 | 33.24372 | -116.30521 | 19556 ft | 359 kts | 212° |
| 2026-04-25 03:52 | 33.22118 | -116.31838 | 19053 ft | 357 kts | 212° |
| 2026-04-25 03:53 | 33.19887 | -116.33141 | 18530 ft | 356 kts | 212° |
| 2026-04-25 03:53 | 33.17675 | -116.34432 | 18051 ft | 354 kts | 212° |
| 2026-04-25 03:53 | 33.15456 | -116.35731 | 17578 ft | 351 kts | 212° |
| 2026-04-25 03:53 | 33.13277 | -116.37006 | 17156 ft | 349 kts | 212° |
| 2026-04-25 03:54 | 33.11093 | -116.38284 | 16682 ft | 347 kts | 211° |
| 2026-04-25 03:54 | 33.08955 | -116.39530 | 16238 ft | 345 kts | 212° |
| 2026-04-25 03:54 | 33.06795 | -116.40790 | 15782 ft | 343 kts | 211° |
| 2026-04-25 03:54 | 33.04660 | -116.42036 | 15329 ft | 341 kts | 211° |
| 2026-04-25 03:55 | 33.02537 | -116.43276 | 14909 ft | 339 kts | 212° |
| 2026-04-25 03:55 | 33.00532 | -116.44666 | 14563 ft | 330 kts | 218° |
| 2026-04-25 03:55 | 32.98703 | -116.46292 | 14239 ft | 323 kts | 224° |
| 2026-04-25 03:55 | 32.96989 | -116.48005 | 13898 ft | 318 kts | 224° |
| 2026-04-25 03:56 | 32.95320 | -116.49698 | 13547 ft | 313 kts | 224° |
| 2026-04-25 03:56 | 32.93698 | -116.51343 | 13239 ft | 309 kts | 224° |
| 2026-04-25 03:56 | 32.92067 | -116.52991 | 12893 ft | 306 kts | 224° |
| 2026-04-25 03:56 | 32.90438 | -116.54636 | 12482 ft | 305 kts | 224° |
| 2026-04-25 03:57 | 32.88830 | -116.56256 | 12088 ft | 304 kts | 224° |
| 2026-04-25 03:57 | 32.87225 | -116.57874 | 11799 ft | 299 kts | 224° |
| 2026-04-25 03:57 | 32.85655 | -116.59452 | 11545 ft | 293 kts | 224° |
| 2026-04-25 03:57 | 32.84099 | -116.61019 | 11260 ft | 289 kts | 224° |
| 2026-04-25 03:58 | 32.82574 | -116.62553 | 11000 ft | 284 kts | 224° |
| 2026-04-25 03:58 | 32.81076 | -116.64061 | 10734 ft | 280 kts | 225° |
| 2026-04-25 03:58 | 32.79602 | -116.65546 | 10468 ft | 276 kts | 224° |
| 2026-04-25 03:58 | 32.78170 | -116.67032 | 10146 ft | 273 kts | 229° |
| 2026-04-25 03:59 | 32.76965 | -116.68760 | 9775 ft | 270 kts | 239° |
| 2026-04-25 03:59 | 32.76006 | -116.70665 | 9452 ft | 268 kts | 243° |
| 2026-04-25 03:59 | 32.75109 | -116.72575 | 9144 ft | 266 kts | 243° |
| 2026-04-25 03:59 | 32.74204 | -116.74509 | 8784 ft | 267 kts | 243° |
| 2026-04-25 04:00 | 32.73295 | -116.76444 | 8181 ft | 277 kts | 243° |
| 2026-04-25 04:00 | 32.72349 | -116.78442 | 7891 ft | 269 kts | 243° |
| 2026-04-25 04:00 | 32.71457 | -116.80323 | 7408 ft | 262 kts | 243° |
| 2026-04-25 04:00 | 32.70636 | -116.82245 | 6768 ft | 259 kts | 249° |
| 2026-04-25 04:01 | 32.69992 | -116.84222 | 6286 ft | 255 kts | 251° |
| 2026-04-25 04:01 | 32.69393 | -116.86147 | 5856 ft | 246 kts | 251° |
| 2026-04-25 04:01 | 32.68809 | -116.88032 | 5394 ft | 239 kts | 251° |
| 2026-04-25 04:01 | 32.68264 | -116.89859 | 4960 ft | 233 kts | 251° |
| 2026-04-25 04:02 | 32.67741 | -116.91647 | 4564 ft | 227 kts | 251° |
| 2026-04-25 04:02 | 32.67311 | -116.93396 | 4223 ft | 219 kts | 265° |
| 2026-04-25 04:02 | 32.67497 | -116.95155 | 3888 ft | 213 kts | 285° |
| 2026-04-25 04:02 | 32.67919 | -116.96794 | 3608 ft | 201 kts | 286° |
| 2026-04-25 04:03 | 32.68321 | -116.98344 | 3497 ft | 190 kts | 285° |
| 2026-04-25 04:03 | 32.68684 | -116.99769 | 3315 ft | 171 kts | 285° |
| 2026-04-25 04:03 | 32.69009 | -117.01066 | 3121 ft | 154 kts | 285° |
| 2026-04-25 04:03 | 32.69300 | -117.02241 | 2970 ft | 147 kts | 284° |
| 2026-04-25 04:04 | 32.69583 | -117.03397 | 2844 ft | 145 kts | 284° |
| 2026-04-25 04:04 | 32.69853 | -117.04504 | 2708 ft | 132 kts | 284° |
| 2026-04-25 04:04 | 32.70106 | -117.05539 | 2484 ft | 130 kts | 284° |
| 2026-04-25 04:04 | 32.70355 | -117.06561 | 2275 ft | 129 kts | 284° |
| 2026-04-25 04:05 | 32.70604 | -117.07587 | 2071 ft | 129 kts | 284° |
| 2026-04-25 04:05 | 32.70854 | -117.08615 | 1871 ft | 129 kts | 284° |
| 2026-04-25 04:05 | 32.71101 | -117.09633 | 1670 ft | 128 kts | 285° |
| 2026-04-25 04:05 | 32.71347 | -117.10643 | 1472 ft | 128 kts | 284° |
| 2026-04-25 04:06 | 32.71594 | -117.11652 | 1277 ft | 127 kts | 284° |
| 2026-04-25 04:06 | 32.71839 | -117.12659 | 1078 ft | 127 kts | 284° |
| 2026-04-25 04:06 | 32.72082 | -117.13660 | 884 ft | 126 kts | 284° |
| 2026-04-25 04:06 | 32.72319 | -117.14663 | 688 ft | 126 kts | 283° |
| 2026-04-25 04:07 | 32.72542 | -117.15671 | 530 ft | 126 kts | 283° |
| 2026-04-25 04:07 | 32.72801 | -117.16671 | 349 ft | 127 kts | 286° |
| 2026-04-25 04:07 | 32.73047 | -117.17678 | 104 ft | 125 kts | 282° |
| 2026-04-25 04:07 | 32.73284 | -117.18671 | 31 ft | 121 kts | 284° |
| 2026-04-25 04:08 | 32.73434 | -117.19300 | 27 ft | 35 kts | 290° |
| 2026-04-25 04:08 | 32.73442 | -117.19409 | 27 ft | 11 kts | 259° |
| 2026-04-25 04:08 | 32.73430 | -117.19465 | 27 ft | 0 kts | 252° |
| 2026-04-25 04:08 | 32.73426 | -117.19477 | 27 ft | 2 kts | 248° |
| 2026-04-25 04:09 | 32.73401 | -117.19552 | 27 ft | 13 kts | 249° |
| 2026-04-25 04:09 | 32.73365 | -117.19662 | 27 ft | 14 kts | 251° |
| 2026-04-25 04:09 | 32.73382 | -117.19758 | 27 ft | 3 kts | 278° |
| 2026-04-25 04:09 | 32.73380 | -117.19765 | 27 ft | 1 kts | 231° |
| 2026-04-25 04:10 | 32.73371 | -117.19759 | 27 ft | 3 kts | 99° |
| 2026-04-25 04:10 | 32.73370 | -117.19688 | 27 ft | 10 kts | 91° |
| 2026-04-25 04:10 | 32.73354 | -117.19576 | 27 ft | 19 kts | 111° |
| 2026-04-25 04:10 | 32.73253 | -117.19512 | 27 ft | 15 kts | 172° |
| 2026-04-25 04:11 | 32.73135 | -117.19515 | 27 ft | 0 kts | 193° |